sensor_id;sensor_type;location;lat;lon;timestamp;pressure;altitude;pressure_sealevel;temperature;humidity
52983;BME280;48698;45.736;13.926;2023-05-16T00:03:43;96778.25;;;13.41;100.00
52983;BME280;48698;45.736;13.926;2023-05-16T00:08:47;96618.84;;;12.29;100.00
52983;BME280;48698;45.736;13.926;2023-05-16T00:14:01;96751.75;;;13.04;100.00
52983;BME280;48698;45.736;13.926;2023-05-16T00:19:04;96772.41;;;13.13;100.00
52983;BME280;48698;45.736;13.926;2023-05-16T00:24:08;96714.06;;;12.97;100.00
52983;BME280;48698;45.736;13.926;2023-05-16T00:29:11;96621.63;;;12.63;100.00
52983;BME280;48698;45.736;13.926;2023-05-16T00:34:24;96655.09;;;13.02;100.00
52983;BME280;48698;45.736;13.926;2023-05-16T00:39:27;96565.78;;;12.39;100.00
52983;BME280;48698;45.736;13.926;2023-05-16T00:44:30;96456.59;;;11.93;100.00
52983;BME280;48698;45.736;13.926;2023-05-16T00:49:33;96605.84;;;12.83;100.00
52983;BME280;48698;45.736;13.926;2023-05-16T00:54:36;96523.22;;;12.15;100.00
52983;BME280;48698;45.736;13.926;2023-05-16T00:59:39;96571.25;;;12.60;100.00
52983;BME280;48698;45.736;13.926;2023-05-16T01:04:45;96529.03;;;12.55;100.00
52983;BME280;48698;45.736;13.926;2023-05-16T01:09:49;96628.03;;;13.19;100.00
52983;BME280;48698;45.736;13.926;2023-05-16T01:15:12;96600.38;;;13.09;100.00
52983;BME280;48698;45.736;13.926;2023-05-16T01:20:40;96590.69;;;13.19;100.00
52983;BME280;48698;45.736;13.926;2023-05-16T01:26:17;96581.94;;;13.06;100.00
52983;BME280;48698;45.736;13.926;2023-05-16T01:31:21;96551.75;;;13.05;100.00
52983;BME280;48698;45.736;13.926;2023-05-16T01:36:32;96457.84;;;12.46;100.00
52983;BME280;48698;45.736;13.926;2023-05-16T01:42:12;96576.13;;;13.23;100.00
52983;BME280;48698;45.736;13.926;2023-05-16T01:47:18;96522.78;;;13.01;100.00
52983;BME280;48698;45.736;13.926;2023-05-16T01:52:27;96403.34;;;12.28;100.00
52983;BME280;48698;45.736;13.926;2023-05-16T01:57:34;96504.81;;;12.58;100.00
52983;BME280;48698;45.736;13.926;2023-05-16T02:02:37;96471.78;;;12.61;100.00
52983;BME280;48698;45.736;13.926;2023-05-16T02:07:40;96492.13;;;12.62;100.00
52983;BME280;48698;45.736;13.926;2023-05-16T02:12:43;96377.59;;;11.82;100.00
52983;BME280;48698;45.736;13.926;2023-05-16T02:17:46;96532.16;;;12.60;100.00
52983;BME280;48698;45.736;13.926;2023-05-16T02:22:49;96435.09;;;12.07;100.00
52983;BME280;48698;45.736;13.926;2023-05-16T02:27:52;96489.78;;;12.46;100.00
52983;BME280;48698;45.736;13.926;2023-05-16T02:32:55;96471.09;;;12.24;100.00
52983;BME280;48698;45.736;13.926;2023-05-16T02:38:01;96480.81;;;12.36;100.00
52983;BME280;48698;45.736;13.926;2023-05-16T02:43:03;96449.97;;;12.10;100.00
52983;BME280;48698;45.736;13.926;2023-05-16T02:48:06;96421.84;;;11.83;100.00
52983;BME280;48698;45.736;13.926;2023-05-16T02:53:10;96540.69;;;12.65;100.00
52983;BME280;48698;45.736;13.926;2023-05-16T02:58:13;96356.97;;;11.38;100.00
52983;BME280;48698;45.736;13.926;2023-05-16T03:03:16;96320.72;;;11.14;100.00
52983;BME280;48698;45.736;13.926;2023-05-16T03:08:19;96386.91;;;11.53;100.00
52983;BME280;48698;45.736;13.926;2023-05-16T03:13:22;96512.38;;;12.40;100.00
52983;BME280;48698;45.736;13.926;2023-05-16T03:18:35;96518.34;;;12.44;100.00
52983;BME280;48698;45.736;13.926;2023-05-16T03:23:38;96276.78;;;11.10;100.00
52983;BME280;48698;45.736;13.926;2023-05-16T03:28:41;96267.91;;;10.98;100.00
52983;BME280;48698;45.736;13.926;2023-05-16T03:33:44;96386.91;;;11.53;100.00
52983;BME280;48698;45.736;13.926;2023-05-16T03:38:47;96467.19;;;12.17;100.00
52983;BME280;48698;45.736;13.926;2023-05-16T03:43:51;96477.50;;;12.21;100.00
52983;BME280;48698;45.736;13.926;2023-05-16T03:48:53;96356.59;;;11.32;100.00
52983;BME280;48698;45.736;13.926;2023-05-16T03:53:56;96437.00;;;11.94;100.00
52983;BME280;48698;45.736;13.926;2023-05-16T03:59:00;96418.22;;;11.84;100.00
52983;BME280;48698;45.736;13.926;2023-05-16T04:04:02;96228.94;;;10.75;100.00
52983;BME280;48698;45.736;13.926;2023-05-16T04:09:05;96197.22;;;10.61;100.00
52983;BME280;48698;45.736;13.926;2023-05-16T04:14:08;96436.94;;;12.18;100.00
52983;BME280;48698;45.736;13.926;2023-05-16T04:19:11;96192.53;;;10.88;100.00
52983;BME280;48698;45.736;13.926;2023-05-16T04:24:14;96298.25;;;11.07;100.00
52983;BME280;48698;45.736;13.926;2023-05-16T04:29:16;96487.28;;;12.21;100.00
52983;BME280;48698;45.736;13.926;2023-05-16T04:34:19;96469.53;;;11.98;100.00
52983;BME280;48698;45.736;13.926;2023-05-16T04:39:22;96201.81;;;10.35;100.00
52983;BME280;48698;45.736;13.926;2023-05-16T04:44:35;96368.47;;;11.39;100.00
52983;BME280;48698;45.736;13.926;2023-05-16T04:49:37;96433.31;;;11.60;100.00
52983;BME280;48698;45.736;13.926;2023-05-16T04:54:40;96469.72;;;11.83;100.00
52983;BME280;48698;45.736;13.926;2023-05-16T04:59:43;96276.38;;;10.56;100.00
52983;BME280;48698;45.736;13.926;2023-05-16T05:04:47;96451.94;;;11.60;100.00
52983;BME280;48698;45.736;13.926;2023-05-16T05:09:50;96441.75;;;11.54;100.00
52983;BME280;48698;45.736;13.926;2023-05-16T05:14:55;96456.16;;;11.75;100.00
52983;BME280;48698;45.736;13.926;2023-05-16T05:19:58;96442.72;;;11.77;100.00
52983;BME280;48698;45.736;13.926;2023-05-16T05:25:04;96393.94;;;11.65;100.00
52983;BME280;48698;45.736;13.926;2023-05-16T05:30:17;96408.19;;;11.88;100.00
52983;BME280;48698;45.736;13.926;2023-05-16T05:35:20;96450.91;;;12.32;100.00
52983;BME280;48698;45.736;13.926;2023-05-16T05:40:23;96366.81;;;12.19;100.00
52983;BME280;48698;45.736;13.926;2023-05-16T05:45:26;96345.75;;;12.38;100.00
52983;BME280;48698;45.736;13.926;2023-05-16T05:50:29;96299.75;;;12.47;100.00
52983;BME280;48698;45.736;13.926;2023-05-16T05:55:32;96437.63;;;13.32;100.00
52983;BME280;48698;45.736;13.926;2023-05-16T06:00:35;96382.75;;;13.08;100.00
52983;BME280;48698;45.736;13.926;2023-05-16T06:05:38;96348.00;;;12.98;100.00
52983;BME280;48698;45.736;13.926;2023-05-16T06:10:42;96352.59;;;13.07;100.00
52983;BME280;48698;45.736;13.926;2023-05-16T06:15:54;96311.63;;;12.54;100.00
52983;BME280;48698;45.736;13.926;2023-05-16T06:20:57;96406.41;;;12.79;100.00
52983;BME280;48698;45.736;13.926;2023-05-16T06:26:01;96474.06;;;12.54;100.00
52983;BME280;48698;45.736;13.926;2023-05-16T06:31:04;96390.16;;;11.80;100.00
52983;BME280;48698;45.736;13.926;2023-05-16T06:36:07;96357.56;;;11.89;100.00
52983;BME280;48698;45.736;13.926;2023-05-16T06:41:11;96345.94;;;11.67;100.00
52983;BME280;48698;45.736;13.926;2023-05-16T06:46:14;96475.38;;;12.03;100.00
52983;BME280;48698;45.736;13.926;2023-05-16T06:51:17;96445.38;;;11.53;100.00
52983;BME280;48698;45.736;13.926;2023-05-16T06:56:20;96334.91;;;10.78;100.00
52983;BME280;48698;45.736;13.926;2023-05-16T07:01:23;96512.91;;;11.87;100.00
52983;BME280;48698;45.736;13.926;2023-05-16T07:06:35;96510.00;;;12.14;100.00
52983;BME280;48698;45.736;13.926;2023-05-16T07:11:39;96321.03;;;11.22;100.00
52983;BME280;48698;45.736;13.926;2023-05-16T07:16:42;96339.22;;;11.15;100.00
52983;BME280;48698;45.736;13.926;2023-05-16T07:21:47;96409.19;;;11.63;100.00
52983;BME280;48698;45.736;13.926;2023-05-16T07:26:50;96424.34;;;12.09;100.00
52983;BME280;48698;45.736;13.926;2023-05-16T07:31:53;96367.25;;;12.02;100.00
52983;BME280;48698;45.736;13.926;2023-05-16T07:36:56;96444.44;;;13.14;100.00
52983;BME280;48698;45.736;13.926;2023-05-16T07:41:59;96395.22;;;13.07;100.00
52983;BME280;48698;45.736;13.926;2023-05-16T07:47:03;96363.75;;;13.55;100.00
52983;BME280;48698;45.736;13.926;2023-05-16T07:52:06;96506.25;;;14.69;100.00
52983;BME280;48698;45.736;13.926;2023-05-16T07:57:09;96389.94;;;14.03;100.00
52983;BME280;48698;45.736;13.926;2023-05-16T08:02:12;96426.91;;;13.86;100.00
52983;BME280;48698;45.736;13.926;2023-05-16T08:07:15;96232.28;;;13.64;100.00
52983;BME280;48698;45.736;13.926;2023-05-16T08:12:27;96429.22;;;15.04;100.00
52983;BME280;48698;45.736;13.926;2023-05-16T08:17:32;96529.00;;;15.65;100.00
52983;BME280;48698;45.736;13.926;2023-05-16T08:22:35;96500.72;;;15.72;100.00
52983;BME280;48698;45.736;13.926;2023-05-16T08:27:37;96328.66;;;13.91;100.00
52983;BME280;48698;45.736;13.926;2023-05-16T08:32:41;96455.25;;;15.02;100.00
52983;BME280;48698;45.736;13.926;2023-05-16T08:37:44;96247.44;;;13.64;100.00
52983;BME280;48698;45.736;13.926;2023-05-16T08:42:47;96435.34;;;14.95;100.00
52983;BME280;48698;45.736;13.926;2023-05-16T08:47:53;96262.78;;;13.71;100.00
52983;BME280;48698;45.736;13.926;2023-05-16T08:52:57;96194.28;;;13.51;100.00
52983;BME280;48698;45.736;13.926;2023-05-16T08:58:00;96506.19;;;15.31;100.00
52983;BME280;48698;45.736;13.926;2023-05-16T09:03:03;96493.28;;;15.45;100.00
52983;BME280;48698;45.736;13.926;2023-05-16T09:08:17;96341.41;;;14.60;100.00
52983;BME280;48698;45.736;13.926;2023-05-16T09:13:20;96398.19;;;14.31;100.00
52983;BME280;48698;45.736;13.926;2023-05-16T09:18:23;96490.16;;;14.59;100.00
52983;BME280;48698;45.736;13.926;2023-05-16T09:23:26;96493.50;;;14.52;100.00
52983;BME280;48698;45.736;13.926;2023-05-16T09:28:29;96521.31;;;14.70;100.00
52983;BME280;48698;45.736;13.926;2023-05-16T09:33:32;96277.78;;;12.88;100.00
52983;BME280;48698;45.736;13.926;2023-05-16T09:38:36;96426.19;;;13.53;100.00
52983;BME280;48698;45.736;13.926;2023-05-16T09:43:40;96533.22;;;14.02;100.00
52983;BME280;48698;45.736;13.926;2023-05-16T09:48:45;96513.63;;;13.92;100.00
52983;BME280;48698;45.736;13.926;2023-05-16T09:53:49;96528.69;;;14.25;100.00
52983;BME280;48698;45.736;13.926;2023-05-16T09:58:52;96386.78;;;13.88;100.00
52983;BME280;48698;45.736;13.926;2023-05-16T10:03:54;96438.09;;;14.33;100.00
52983;BME280;48698;45.736;13.926;2023-05-16T10:09:11;96432.56;;;14.66;100.00
52983;BME280;48698;45.736;13.926;2023-05-16T10:14:19;96454.63;;;14.38;100.00
52983;BME280;48698;45.736;13.926;2023-05-16T10:19:24;96512.34;;;14.18;100.00
52983;BME280;48698;45.736;13.926;2023-05-16T10:24:38;96404.34;;;13.59;100.00
52983;BME280;48698;45.736;13.926;2023-05-16T10:29:42;96558.19;;;14.55;100.00
52983;BME280;48698;45.736;13.926;2023-05-16T10:34:54;96555.59;;;14.33;100.00
52983;BME280;48698;45.736;13.926;2023-05-16T10:40:01;96530.66;;;13.69;100.00
52983;BME280;48698;45.736;13.926;2023-05-16T10:45:19;96523.78;;;13.33;100.00
52983;BME280;48698;45.736;13.926;2023-05-16T10:50:38;96609.63;;;13.38;100.00
52983;BME280;48698;45.736;13.926;2023-05-16T11:06:32;96533.69;;;12.75;100.00
52983;BME280;48698;45.736;13.926;2023-05-16T11:11:39;96568.41;;;13.09;100.00
52983;BME280;48698;45.736;13.926;2023-05-16T11:16:52;96584.66;;;13.28;100.00
52983;BME280;48698;45.736;13.926;2023-05-16T11:22:24;96582.94;;;13.27;100.00
52983;BME280;48698;45.736;13.926;2023-05-16T11:27:46;96600.16;;;13.34;100.00
52983;BME280;48698;45.736;13.926;2023-05-16T11:33:01;96598.72;;;13.52;100.00
52983;BME280;48698;45.736;13.926;2023-05-16T11:38:04;96624.03;;;13.24;100.00
52983;BME280;48698;45.736;13.926;2023-05-16T11:43:06;96519.00;;;12.24;100.00
52983;BME280;48698;45.736;13.926;2023-05-16T11:48:23;96511.53;;;12.40;100.00
52983;BME280;48698;45.736;13.926;2023-05-16T11:53:37;96547.69;;;12.66;100.00
52983;BME280;48698;45.736;13.926;2023-05-16T11:58:40;96546.25;;;12.62;100.00
52983;BME280;48698;45.736;13.926;2023-05-16T12:03:43;96546.66;;;12.45;100.00
52983;BME280;48698;45.736;13.926;2023-05-16T12:08:50;96595.66;;;12.77;100.00
52983;BME280;48698;45.736;13.926;2023-05-16T12:14:07;96537.25;;;12.52;100.00
52983;BME280;48698;45.736;13.926;2023-05-16T12:19:21;96455.69;;;11.81;100.00
52983;BME280;48698;45.736;13.926;2023-05-16T12:24:28;96649.97;;;12.40;100.00
52983;BME280;48698;45.736;13.926;2023-05-16T12:29:32;96545.72;;;11.75;100.00
52983;BME280;48698;45.736;13.926;2023-05-16T12:34:35;96525.72;;;11.69;100.00
52983;BME280;48698;45.736;13.926;2023-05-16T12:39:37;96446.50;;;11.38;100.00
52983;BME280;48698;45.736;13.926;2023-05-16T12:44:44;96578.88;;;12.18;100.00
52983;BME280;48698;45.736;13.926;2023-05-16T12:49:47;96547.25;;;12.14;100.00
52983;BME280;48698;45.736;13.926;2023-05-16T12:54:52;96608.22;;;12.64;100.00
52983;BME280;48698;45.736;13.926;2023-05-16T12:59:55;96578.69;;;12.67;100.00
52983;BME280;48698;45.736;13.926;2023-05-16T13:04:58;96576.16;;;12.66;100.00
52983;BME280;48698;45.736;13.926;2023-05-16T13:10:03;96562.69;;;12.67;100.00
52983;BME280;48698;45.736;13.926;2023-05-16T13:15:07;96584.94;;;12.55;100.00
52983;BME280;48698;45.736;13.926;2023-05-16T13:20:11;96499.16;;;11.93;100.00
52983;BME280;48698;45.736;13.926;2023-05-16T13:25:24;96604.38;;;12.44;100.00
52983;BME280;48698;45.736;13.926;2023-05-16T13:30:28;96619.75;;;12.17;100.00
52983;BME280;48698;45.736;13.926;2023-05-16T13:35:31;96579.13;;;11.79;100.00
52983;BME280;48698;45.736;13.926;2023-05-16T13:40:34;96554.50;;;11.52;100.00
52983;BME280;48698;45.736;13.926;2023-05-16T13:45:39;96618.19;;;11.78;100.00
52983;BME280;48698;45.736;13.926;2023-05-16T13:50:43;96594.25;;;11.66;100.00
52983;BME280;48698;45.736;13.926;2023-05-16T13:55:46;96465.63;;;11.07;100.00
52983;BME280;48698;45.736;13.926;2023-05-16T14:00:49;96584.84;;;11.85;100.00
52983;BME280;48698;45.736;13.926;2023-05-16T14:05:52;96504.69;;;11.54;100.00
52983;BME280;48698;45.736;13.926;2023-05-16T14:10:55;96538.66;;;11.86;100.00
52983;BME280;48698;45.736;13.926;2023-05-16T14:15:58;96521.41;;;11.92;100.00
52983;BME280;48698;45.736;13.926;2023-05-16T14:21:01;96547.81;;;12.30;100.00
52983;BME280;48698;45.736;13.926;2023-05-16T14:26:04;96515.03;;;12.29;100.00
52983;BME280;48698;45.736;13.926;2023-05-16T14:31:08;96478.28;;;12.11;100.00
52983;BME280;48698;45.736;13.926;2023-05-16T14:36:12;96426.50;;;11.93;100.00
52983;BME280;48698;45.736;13.926;2023-05-16T14:41:15;96500.22;;;12.49;100.00
52983;BME280;48698;45.736;13.926;2023-05-16T14:46:18;96354.16;;;11.87;100.00
52983;BME280;48698;45.736;13.926;2023-05-16T14:51:21;96346.44;;;11.96;100.00
52983;BME280;48698;45.736;13.926;2023-05-16T14:56:24;96341.72;;;11.99;100.00
52983;BME280;48698;45.736;13.926;2023-05-16T15:01:28;96319.72;;;12.08;100.00
52983;BME280;48698;45.736;13.926;2023-05-16T15:06:31;96326.41;;;12.25;100.00
52983;BME280;48698;45.736;13.926;2023-05-16T15:11:34;96309.56;;;12.24;100.00
52983;BME280;48698;45.736;13.926;2023-05-16T15:16:47;96468.41;;;13.36;100.00
52983;BME280;48698;45.736;13.926;2023-05-16T15:21:50;96380.75;;;12.89;100.00
52983;BME280;48698;45.736;13.926;2023-05-16T15:26:52;96489.56;;;13.60;100.00
52983;BME280;48698;45.736;13.926;2023-05-16T15:31:55;96307.16;;;12.55;100.00
52983;BME280;48698;45.736;13.926;2023-05-16T15:36:58;96448.50;;;13.52;100.00
52983;BME280;48698;45.736;13.926;2023-05-16T15:42:01;96442.69;;;13.46;100.00
52983;BME280;48698;45.736;13.926;2023-05-16T15:47:11;96477.78;;;13.74;100.00
52983;BME280;48698;45.736;13.926;2023-05-16T15:52:14;96413.41;;;13.24;100.00
52983;BME280;48698;45.736;13.926;2023-05-16T15:57:27;96311.34;;;12.79;100.00
52983;BME280;48698;45.736;13.926;2023-05-16T16:02:30;96402.38;;;13.29;100.00
52983;BME280;48698;45.736;13.926;2023-05-16T16:07:32;96403.28;;;13.50;100.00
52983;BME280;48698;45.736;13.926;2023-05-16T16:12:36;96229.66;;;12.58;100.00
52983;BME280;48698;45.736;13.926;2023-05-16T16:17:43;96465.03;;;14.09;100.00
52983;BME280;48698;45.736;13.926;2023-05-16T16:22:46;96456.31;;;14.07;100.00
52983;BME280;48698;45.736;13.926;2023-05-16T16:27:49;96448.38;;;14.17;100.00
52983;BME280;48698;45.736;13.926;2023-05-16T16:33:02;96352.72;;;13.80;100.00
52983;BME280;48698;45.736;13.926;2023-05-16T16:38:06;96397.06;;;14.13;100.00
52983;BME280;48698;45.736;13.926;2023-05-16T16:43:10;96459.31;;;15.36;100.00
52983;BME280;48698;45.736;13.926;2023-05-16T16:48:13;96320.84;;;14.51;100.00
52983;BME280;48698;45.736;13.926;2023-05-16T16:53:17;96457.00;;;15.62;100.00
52983;BME280;48698;45.736;13.926;2023-05-16T16:58:20;96414.47;;;15.10;100.00
52983;BME280;48698;45.736;13.926;2023-05-16T17:03:23;96349.13;;;14.53;100.00
52983;BME280;48698;45.736;13.926;2023-05-16T17:08:25;96400.50;;;14.66;100.00
52983;BME280;48698;45.736;13.926;2023-05-16T17:13:28;96416.13;;;15.01;100.00
52983;BME280;48698;45.736;13.926;2023-05-16T17:18:34;96360.13;;;15.09;100.00
52983;BME280;48698;45.736;13.926;2023-05-16T17:23:38;96225.34;;;14.43;100.00
52983;BME280;48698;45.736;13.926;2023-05-16T17:28:44;96352.09;;;15.68;100.00
52983;BME280;48698;45.736;13.926;2023-05-16T17:33:48;96357.56;;;15.95;100.00
52983;BME280;48698;45.736;13.926;2023-05-16T17:38:53;96232.09;;;15.25;100.00
52983;BME280;48698;45.736;13.926;2023-05-16T17:43:55;96401.78;;;15.61;100.00
52983;BME280;48698;45.736;13.926;2023-05-16T17:49:04;96387.78;;;14.59;100.00
52983;BME280;48698;45.736;13.926;2023-05-16T17:54:09;96448.69;;;14.85;100.00
52983;BME280;48698;45.736;13.926;2023-05-16T17:59:14;96441.63;;;14.54;100.00
52983;BME280;48698;45.736;13.926;2023-05-16T18:04:17;96427.88;;;14.17;100.00
52983;BME280;48698;45.736;13.926;2023-05-16T18:09:23;96396.63;;;13.76;100.00
52983;BME280;48698;45.736;13.926;2023-05-16T18:14:26;96437.66;;;13.96;100.00
52983;BME280;48698;45.736;13.926;2023-05-16T18:19:29;96447.06;;;14.11;100.00
52983;BME280;48698;45.736;13.926;2023-05-16T18:24:33;96387.25;;;13.61;100.00
52983;BME280;48698;45.736;13.926;2023-05-16T18:29:36;96493.88;;;14.15;100.00
52983;BME280;48698;45.736;13.926;2023-05-16T18:34:38;96389.06;;;13.61;100.00
52983;BME280;48698;45.736;13.926;2023-05-16T18:39:42;96482.75;;;14.10;100.00
52983;BME280;48698;45.736;13.926;2023-05-16T18:44:58;96512.41;;;13.96;100.00
52983;BME280;48698;45.736;13.926;2023-05-16T18:50:01;96318.97;;;12.84;100.00
52983;BME280;48698;45.736;13.926;2023-05-16T18:55:05;96429.94;;;13.50;100.00
52983;BME280;48698;45.736;13.926;2023-05-16T19:00:08;96459.09;;;13.31;100.00
52983;BME280;48698;45.736;13.926;2023-05-16T19:05:21;96507.44;;;13.37;100.00
52983;BME280;48698;45.736;13.926;2023-05-16T19:10:24;96406.16;;;12.60;100.00
52983;BME280;48698;45.736;13.926;2023-05-16T19:15:27;96384.50;;;12.42;100.00
52983;BME280;48698;45.736;13.926;2023-05-16T19:20:32;96513.59;;;13.05;100.00
52983;BME280;48698;45.736;13.926;2023-05-16T19:25:42;96469.97;;;12.72;100.00
52983;BME280;48698;45.736;13.926;2023-05-16T19:30:49;96537.59;;;13.16;100.00
52983;BME280;48698;45.736;13.926;2023-05-16T19:35:51;96517.97;;;13.06;100.00
52983;BME280;48698;45.736;13.926;2023-05-16T19:40:54;96440.41;;;12.86;100.00
52983;BME280;48698;45.736;13.926;2023-05-16T19:45:57;96474.81;;;12.89;100.00
52983;BME280;48698;45.736;13.926;2023-05-16T19:51:00;96299.97;;;11.77;100.00
52983;BME280;48698;45.736;13.926;2023-05-16T19:56:03;96388.56;;;12.13;100.00
52983;BME280;48698;45.736;13.926;2023-05-16T20:01:16;96531.75;;;13.00;100.00
52983;BME280;48698;45.736;13.926;2023-05-16T20:06:28;96338.81;;;11.67;100.00
52983;BME280;48698;45.736;13.926;2023-05-16T20:11:32;96603.41;;;13.26;100.00
52983;BME280;48698;45.736;13.926;2023-05-16T20:16:35;96599.53;;;13.30;100.00
52983;BME280;48698;45.736;13.926;2023-05-16T20:21:38;96500.34;;;12.59;100.00
52983;BME280;48698;45.736;13.926;2023-05-16T20:26:42;96583.59;;;13.07;100.00
52983;BME280;48698;45.736;13.926;2023-05-16T20:31:44;96386.06;;;11.87;100.00
52983;BME280;48698;45.736;13.926;2023-05-16T20:36:57;96626.06;;;13.21;100.00
52983;BME280;48698;45.736;13.926;2023-05-16T20:42:01;96641.13;;;13.22;100.00
52983;BME280;48698;45.736;13.926;2023-05-16T20:47:13;96581.75;;;12.85;100.00
52983;BME280;48698;45.736;13.926;2023-05-16T20:52:18;96636.25;;;13.27;100.00
52983;BME280;48698;45.736;13.926;2023-05-16T20:57:22;96378.00;;;11.65;100.00
52983;BME280;48698;45.736;13.926;2023-05-16T21:02:35;96577.25;;;12.74;100.00
52983;BME280;48698;45.736;13.926;2023-05-16T21:07:38;96635.50;;;13.14;100.00
52983;BME280;48698;45.736;13.926;2023-05-16T21:12:49;96536.16;;;12.55;100.00
52983;BME280;48698;45.736;13.926;2023-05-16T21:17:52;96519.66;;;12.38;100.00
52983;BME280;48698;45.736;13.926;2023-05-16T21:22:55;96540.50;;;12.44;100.00
52983;BME280;48698;45.736;13.926;2023-05-16T21:27:57;96624.78;;;12.91;100.00
52983;BME280;48698;45.736;13.926;2023-05-16T21:33:01;96630.06;;;12.80;100.00
52983;BME280;48698;45.736;13.926;2023-05-16T21:38:04;96657.00;;;12.88;100.00
52983;BME280;48698;45.736;13.926;2023-05-16T21:43:17;96370.59;;;11.10;100.00
52983;BME280;48698;45.736;13.926;2023-05-16T21:48:20;96608.16;;;12.53;100.00
52983;BME280;48698;45.736;13.926;2023-05-16T21:53:23;96588.25;;;12.35;100.00
52983;BME280;48698;45.736;13.926;2023-05-16T21:58:27;96523.53;;;11.63;100.00
52983;BME280;48698;45.736;13.926;2023-05-16T22:03:30;96620.16;;;11.87;100.00
52983;BME280;48698;45.736;13.926;2023-05-16T22:08:32;96711.38;;;11.89;100.00
52983;BME280;48698;45.736;13.926;2023-05-16T22:13:35;96689.56;;;11.47;100.00
52983;BME280;48698;45.736;13.926;2023-05-16T22:18:38;96696.03;;;11.55;100.00
52983;BME280;48698;45.736;13.926;2023-05-16T22:23:41;96704.03;;;11.55;100.00
52983;BME280;48698;45.736;13.926;2023-05-16T22:28:44;96749.34;;;11.66;100.00
52983;BME280;48698;45.736;13.926;2023-05-16T22:33:46;96730.91;;;11.38;100.00
52983;BME280;48698;45.736;13.926;2023-05-16T22:38:49;96694.44;;;11.15;100.00
52983;BME280;48698;45.736;13.926;2023-05-16T22:43:52;96669.44;;;10.92;100.00
52983;BME280;48698;45.736;13.926;2023-05-16T22:48:55;96616.34;;;10.53;100.00
52983;BME280;48698;45.736;13.926;2023-05-16T22:54:08;96697.16;;;10.88;100.00
52983;BME280;48698;45.736;13.926;2023-05-16T22:59:10;96759.59;;;11.20;100.00
52983;BME280;48698;45.736;13.926;2023-05-16T23:04:13;96767.63;;;11.33;100.00
52983;BME280;48698;45.736;13.926;2023-05-16T23:09:16;96761.03;;;11.51;100.00
52983;BME280;48698;45.736;13.926;2023-05-16T23:14:19;96762.94;;;11.49;100.00
52983;BME280;48698;45.736;13.926;2023-05-16T23:19:22;96767.41;;;11.61;100.00
52983;BME280;48698;45.736;13.926;2023-05-16T23:24:25;96645.31;;;10.82;100.00
52983;BME280;48698;45.736;13.926;2023-05-16T23:29:28;96677.59;;;10.89;100.00
52983;BME280;48698;45.736;13.926;2023-05-16T23:34:30;96601.50;;;10.50;100.00
52983;BME280;48698;45.736;13.926;2023-05-16T23:39:43;96784.22;;;11.62;100.00
52983;BME280;48698;45.736;13.926;2023-05-16T23:44:56;96790.16;;;11.40;100.00
52983;BME280;48698;45.736;13.926;2023-05-16T23:49:59;96811.38;;;11.27;100.00
52983;BME280;48698;45.736;13.926;2023-05-16T23:55:02;96810.31;;;10.90;100.00
